12:18
Airports
Links
Donate
Help keep this website running!
PayPal
Bitcoin
METAR
CYXE 121200Z 21010KT 15SM SCT250 M03/M05 A2991 RMK CI3 SLP158
Current Weather Conditions at CYXE
VFR 12:00:00 12-12-17
Altimeter:29.91 hg
Temp:-3.0°c 27°f
Dew point:-5.0°c 23°f
Wind:10 knots, 11.5 mph, 5 m/s, from 210°
Visibility:15.0 statute miles
25000(SCT) Scattered
Past METAR reports
VFR 11:00:00 12-12-17
Altimeter:29.94 hg
Temp:-3.0°c 27°f
Dew point:-5.0°c 23°f
Wind:12 knots, 13.8 mph, 6 m/s, from 230°
Visibility:15.0 statute miles
25000(SCT) Scattered
CYXE 121100Z 23012KT 15SM SCT250 M03/M05 A2994 RMK CI3 SLP170
VFR 10:00:00 12-12-17
Altimeter:29.98 hg
Temp:-3.0°c 27°f
Dew point:-5.0°c 23°f
Wind:11 knots, 12.7 mph, 6 m/s, from 220°
Visibility:15.0 statute miles
25000(SCT) Scattered
CYXE 121000Z 22011KT 15SM SCT250 M03/M05 A2998 RMK CI3 SLP183
VFR 09:00:00 12-12-17
Altimeter:29.99 hg
Temp:-2.0°c 28°f
Dew point:-5.0°c 23°f
Wind:7 knots, 8.1 mph, 4 m/s, from 200°
Visibility:15.0 statute miles
(SKC) Clear
CYXE 120900Z 20007KT 15SM SKC M02/M05 A2999 RMK SLP185
VFR 08:00:00 12-12-17
Altimeter:30.03 hg
Temp:-2.0°c 28°f
Dew point:-5.0°c 23°f
Wind:9 knots, 10.4 mph, 5 m/s, from 210°
Visibility:15.0 statute miles
(SKC) Clear
CYXE 120800Z 21009KT 15SM SKC M02/M05 A3003 RMK SLP199
VFR 07:00:00 12-12-17
Altimeter:30.06 hg
Temp:-1.0°c 30°f
Dew point:-4.0°c 25°f
Wind:7 knots, 8.1 mph, 4 m/s, from 210°
Visibility:15.0 statute miles
20000(FEW) A few
CYXE 120700Z 21007KT 15SM FEW200 M01/M04 A3006 RMK CI2 SLP209
TAF
TAF CYXE 121138Z 1212/1312 23012KT P6SM SKC BECMG 1213/1215 22006KT FM122000 28015G25KT P6SM BKN080 FM122300 30018G28KT P6SM OVC040 TEMPO 1223/1303 P6SM -SHRA FM130300 32015G25KT P6SM FEW060 RMK NXT FCST BY 121800Z
Forecast at CYXE
12:00 12-12-17 to 13:00 12-12-17
Wind:12 Knots from 230°
Visibility:6.21 statute miles
SKC Clear
BECMG 13:00 12-12-17 to 20:00 12-12-17
Wind:6 Knots from 220°
Visibility:6.21 statute miles
SKC Clear
FM 20:00 12-12-17 to 23:00 12-12-17
Wind:15 Knots from 280°
Visibility:6.21 statute miles
8000BKN Broken
FM 23:00 12-12-17 to 03:00 13-12-17
Wind:18 Knots from 300°
Visibility:6.21 statute miles
4000OVC Overcast
TEMPO 23:00 12-12-17 to 03:00 13-12-17
-SHRA
Visibility:6.21 statute miles
FM 03:00 13-12-17 to 12:00 13-12-17
Wind:15 Knots from 320°
Visibility:6.21 statute miles
6000FEW A few